createdAt,value
2023-01-19T00:00:35.634Z,196.79
2023-01-19T00:01:35.535Z,197.49
2023-01-19T00:02:35.544Z,199.76
2023-01-19T00:03:35.518Z,196.21
2023-01-19T00:04:36.503Z,199.15
2023-01-19T00:05:35.518Z,193.91
2023-01-19T00:06:35.600Z,194.59
2023-01-19T00:07:35.509Z,201.27
2023-01-19T00:10:35.517Z,200.35
2023-01-19T00:11:35.523Z,198.27
2023-01-19T00:12:35.517Z,202.38
2023-01-19T00:13:35.544Z,201.06
2023-01-19T00:14:35.534Z,198.80
2023-01-19T00:15:35.539Z,198.60
2023-01-19T00:16:35.576Z,198.88
2023-01-19T00:17:35.570Z,197.70
2023-01-19T00:18:35.565Z,199.00
2023-01-19T00:19:35.559Z,201.62
2023-01-19T00:20:35.674Z,196.99
2023-01-19T00:21:35.573Z,201.01
2023-01-19T00:22:35.571Z,195.91
2023-01-19T00:23:35.581Z,200.09
2023-01-19T00:24:35.583Z,197.86
2023-01-19T00:25:35.617Z,199.37
2023-01-19T00:26:35.597Z,192.92
2023-01-19T00:27:35.599Z,191.05
2023-01-19T00:28:35.602Z,193.69
2023-01-19T00:29:35.604Z,191.79
2023-01-19T00:30:35.604Z,201.89
2023-01-19T00:31:35.675Z,196.13
2023-01-19T00:32:35.601Z,195.81
2023-01-19T00:33:35.606Z,197.61
2023-01-19T00:34:35.643Z,195.60
2023-01-19T00:35:35.645Z,198.61
2023-01-19T00:36:35.653Z,199.66
2023-01-19T00:37:35.645Z,197.02
2023-01-19T00:38:35.647Z,192.96
2023-01-19T00:39:35.644Z,198.37
2023-01-19T00:40:35.648Z,194.04
2023-01-19T00:41:35.650Z,192.16
2023-01-19T00:42:35.656Z,195.89
2023-01-19T00:43:35.643Z,196.69
2023-01-19T00:44:35.649Z,193.66
2023-01-19T00:45:35.704Z,198.83
2023-01-19T00:46:35.655Z,200.45
2023-01-19T00:47:35.659Z,192.74
2023-01-19T00:48:35.672Z,194.79
2023-01-19T00:49:35.645Z,192.06
2023-01-19T00:50:35.641Z,190.32
2023-01-19T00:51:35.651Z,191.61
2023-01-19T00:52:35.627Z,192.92
2023-01-19T00:54:35.604Z,196.96
2023-01-19T00:55:35.614Z,198.37
2023-01-19T00:56:35.627Z,198.83
2023-01-19T00:57:35.624Z,195.16
2023-01-19T00:58:35.627Z,196.39
2023-01-19T00:59:35.639Z,190.98
2023-01-19T01:00:35.632Z,194.49
2023-01-19T01:01:46.087Z,191.22
2023-01-19T01:02:36.667Z,191.32
2023-01-19T01:03:35.548Z,191.56
2023-01-19T01:38:35.542Z,192.40
2023-01-19T03:46:29.540Z,194.98
2023-01-19T03:47:29.517Z,197.03
2023-01-19T03:48:29.500Z,192.73
2023-01-19T03:49:29.453Z,192.25
2023-01-19T03:50:29.425Z,190.86
2023-01-19T03:51:29.407Z,194.02
2023-01-19T05:45:28.026Z,204.72
2023-01-19T05:46:28.110Z,202.53
2023-01-19T05:47:28.019Z,202.47
2023-01-19T05:48:28.000Z,205.62
2023-01-19T05:49:28.014Z,204.17
2023-01-19T05:50:27.977Z,205.90
2023-01-19T05:51:27.985Z,204.19
2023-01-19T05:52:27.975Z,204.47
2023-01-19T05:53:27.973Z,203.44
2023-01-19T05:54:27.963Z,199.95
2023-01-19T05:55:27.954Z,204.45
2023-01-19T05:56:27.949Z,204.67
2023-01-19T05:57:27.937Z,203.40
2023-01-19T05:58:27.945Z,201.08
2023-01-19T05:59:27.924Z,203.95
2023-01-19T06:00:27.924Z,202.99
2023-01-19T06:01:28.004Z,207.09
2023-01-19T06:02:28.012Z,203.86
2023-01-19T06:03:27.935Z,204.43
2023-01-19T06:04:27.904Z,208.30
2023-01-19T06:05:27.895Z,207.11
2023-01-19T06:06:27.952Z,204.35
2023-01-19T06:07:29.142Z,205.08
2023-01-19T06:08:27.876Z,202.24
2023-01-19T06:09:27.860Z,202.41
2023-01-19T06:10:27.862Z,202.71
2023-01-19T06:11:27.867Z,202.83
2023-01-19T06:12:27.856Z,202.94
2023-01-19T06:13:27.846Z,200.97
2023-01-19T06:14:27.841Z,204.13
2023-01-19T06:15:27.828Z,203.47
2023-01-19T06:16:27.898Z,199.43
2023-01-19T06:17:27.833Z,202.35
2023-01-19T06:18:27.808Z,204.37
2023-01-19T06:19:27.808Z,203.56
2023-01-19T06:20:27.797Z,203.05
2023-01-19T06:21:27.793Z,205.23
2023-01-19T06:22:27.785Z,198.30
2023-01-19T06:23:27.785Z,197.47
2023-01-19T06:24:27.777Z,208.64
2023-01-19T06:25:27.767Z,215.92
2023-01-19T06:26:27.743Z,158.41
2023-01-19T06:27:27.734Z,159.93
2023-01-19T06:29:28.738Z,176.35
2023-01-19T06:31:27.624Z,175.58
2023-01-19T06:32:27.498Z,171.67
2023-01-19T06:33:27.431Z,176.48
2023-01-19T06:34:27.348Z,183.05
2023-01-19T06:35:27.282Z,180.93
2023-01-19T06:36:27.210Z,178.94
2023-01-19T06:37:27.147Z,183.20
2023-01-19T06:39:27.038Z,179.29
2023-01-19T06:40:26.995Z,181.31
2023-01-19T06:55:28.018Z,174.85
2023-01-19T06:56:26.740Z,177.47
2023-01-19T06:57:26.721Z,178.10
2023-01-19T06:58:26.669Z,181.13
2023-01-19T06:59:26.635Z,181.64
2023-01-19T07:00:26.610Z,179.85
2023-01-19T07:01:26.633Z,177.85
2023-01-19T07:02:28.561Z,178.67
2023-01-19T07:03:26.504Z,177.91
2023-01-19T07:04:26.416Z,179.89
2023-01-19T07:05:26.375Z,180.29
2023-01-19T07:06:26.345Z,179.62
2023-01-19T07:07:26.300Z,174.26
2023-01-19T07:08:26.250Z,181.38
2023-01-19T07:09:26.240Z,177.64
2023-01-19T07:10:26.221Z,178.77
2023-01-19T07:11:33.068Z,178.94
2023-01-19T07:12:27.077Z,178.94
2023-01-19T07:13:25.977Z,179.16
2023-01-19T07:14:25.901Z,178.28
2023-01-19T07:15:25.831Z,176.73
2023-01-19T07:16:25.765Z,179.35
2023-01-19T07:17:25.678Z,177.53
2023-01-19T07:18:25.597Z,176.71
2023-01-19T07:19:25.522Z,178.56
2023-01-19T07:24:26.627Z,173.53
2023-01-19T07:26:25.701Z,175.28
2023-01-19T09:31:18.598Z,235.36
2023-01-19T09:34:18.274Z,226.81
2023-01-19T09:35:18.202Z,227.04
2023-01-19T09:36:18.192Z,227.66
2023-01-19T09:37:18.755Z,229.48
2023-01-19T09:53:17.237Z,222.45
2023-01-19T09:56:17.012Z,225.60
2023-01-19T09:58:16.910Z,222.49
2023-01-19T09:59:16.878Z,223.84
2023-01-19T10:00:16.867Z,223.87
2023-01-19T10:01:16.888Z,224.97
2023-01-19T10:02:16.820Z,222.21
2023-01-19T10:03:16.860Z,228.08
2023-01-19T10:04:16.788Z,227.48
2023-01-19T10:05:16.777Z,227.59
2023-01-19T10:07:16.758Z,227.43
2023-01-19T10:08:16.723Z,225.87
2023-01-19T10:09:17.289Z,226.93
2023-01-19T10:10:16.716Z,223.87
2023-01-19T10:11:16.690Z,224.28
2023-01-19T10:12:17.928Z,224.47
2023-01-19T10:13:16.651Z,227.29
2023-01-19T10:14:18.144Z,227.41
2023-01-19T10:15:16.500Z,225.79
2023-01-19T10:16:16.454Z,225.95
2023-01-19T10:17:16.355Z,224.56
2023-01-19T10:18:16.253Z,229.64
2023-01-19T10:19:16.176Z,227.09
2023-01-19T10:20:16.102Z,222.56
2023-01-19T10:21:16.026Z,222.78
2023-01-19T10:22:15.947Z,225.29
2023-01-19T10:23:15.923Z,224.34
2023-01-19T10:24:15.940Z,225.79
2023-01-19T10:25:16.225Z,223.73
2023-01-19T10:26:15.883Z,227.24
2023-01-19T10:27:15.833Z,226.08
2023-01-19T10:28:15.833Z,225.48
2023-01-19T10:29:15.828Z,224.24
2023-01-19T10:30:15.818Z,227.97
2023-01-19T10:31:15.835Z,226.02
2023-01-19T10:32:15.868Z,226.94
2023-01-19T10:33:15.812Z,223.24
2023-01-19T10:34:19.128Z,223.49
2023-01-19T10:35:15.707Z,223.59
2023-01-19T10:36:16.243Z,223.87
2023-01-19T10:37:15.567Z,223.97
2023-01-19T10:38:16.233Z,225.09
2023-01-19T10:39:15.400Z,226.27
2023-01-19T10:40:15.349Z,224.32
2023-01-19T10:41:15.327Z,227.06
2023-01-19T10:42:15.186Z,224.73
2023-01-19T10:43:15.094Z,227.33
2023-01-19T10:44:15.060Z,225.80
2023-01-19T10:45:14.955Z,228.24
2023-01-19T10:46:14.939Z,227.55
2023-01-19T10:47:14.808Z,228.99
2023-01-19T10:48:14.737Z,227.96
2023-01-19T10:49:14.735Z,228.30
2023-01-19T10:50:14.614Z,228.45
2023-01-19T10:51:14.549Z,228.67
2023-01-19T10:52:14.477Z,226.59
2023-01-19T10:53:14.383Z,227.39
2023-01-19T10:54:14.324Z,227.20
2023-01-19T10:55:14.263Z,231.71
2023-01-19T10:56:14.244Z,227.92
2023-01-19T10:57:14.207Z,228.98
2023-01-19T10:58:14.156Z,230.98
2023-01-19T10:59:14.213Z,230.40
2023-01-19T11:00:14.215Z,227.63
2023-01-19T11:01:14.304Z,231.47
2023-01-19T11:02:14.414Z,228.44
2023-01-19T11:03:14.201Z,230.36
2023-01-19T11:16:18.771Z,250.00
2023-01-19T11:23:13.480Z,249.05
2023-01-19T11:24:13.405Z,248.21
2023-01-19T11:25:13.327Z,247.51
2023-01-19T11:26:13.246Z,246.87
2023-01-19T11:27:13.175Z,249.75
2023-01-19T11:28:13.087Z,245.73
2023-01-19T11:29:13.007Z,245.45
2023-01-19T11:30:12.933Z,244.66
2023-01-19T11:31:12.916Z,244.57
2023-01-19T11:32:12.780Z,244.33
2023-01-19T11:33:12.683Z,244.72
2023-01-19T11:34:12.613Z,244.78
2023-01-19T11:35:12.520Z,245.09
2023-01-19T11:36:12.445Z,240.54
2023-01-19T11:37:12.369Z,242.87
2023-01-19T11:38:12.285Z,241.70
2023-01-19T11:39:12.175Z,238.31
2023-01-19T11:40:14.345Z,238.16
2023-01-19T11:41:12.015Z,236.47
2023-01-19T11:43:11.895Z,238.00
2023-01-19T13:31:05.791Z,163.11
2023-01-19T13:32:05.676Z,161.25
2023-01-19T13:33:05.630Z,164.20
2023-01-19T13:34:05.616Z,160.31
2023-01-19T13:35:05.582Z,161.37
2023-01-19T13:36:05.569Z,161.57
2023-01-19T13:37:05.521Z,163.04
2023-01-19T13:45:06.299Z,158.95
2023-01-19T18:07:58.215Z,138.41
2023-01-19T18:08:58.151Z,136.81
2023-01-19T18:10:00.864Z,139.64
2023-01-19T18:10:58.044Z,138.56
2023-01-19T18:11:57.971Z,142.19
2023-01-19T18:12:57.906Z,138.53
2023-01-19T18:13:57.825Z,136.48
2023-01-19T18:14:57.763Z,136.19
2023-01-19T18:15:58.432Z,137.54
2023-01-19T18:16:57.626Z,139.03
2023-01-19T18:17:57.548Z,137.10
2023-01-19T18:18:57.475Z,139.24
2023-01-19T18:19:57.474Z,138.93
2023-01-19T18:20:57.348Z,136.91
2023-01-19T18:21:57.285Z,137.66
2023-01-19T18:22:57.207Z,136.39
2023-01-19T18:23:57.147Z,136.19
2023-01-19T18:24:57.067Z,137.36
2023-01-19T18:25:56.993Z,136.40
2023-01-19T18:26:56.927Z,137.84
2023-01-19T18:42:55.782Z,135.63
2023-01-19T18:43:55.694Z,136.12
2023-01-19T18:44:55.628Z,133.22
2023-01-19T18:45:56.422Z,135.66
2023-01-19T20:56:48.580Z,130.37
2023-01-19T20:57:48.532Z,133.45
2023-01-19T20:58:48.473Z,129.78
2023-01-19T21:07:48.071Z,131.70
2023-01-19T21:08:48.044Z,133.28
2023-01-19T21:09:47.995Z,132.72
2023-01-19T21:10:47.957Z,131.32
2023-01-19T21:11:47.906Z,129.67
2023-01-19T21:12:47.894Z,130.25
2023-01-19T21:21:48.426Z,128.48
2023-01-19T21:22:47.464Z,131.09
2023-01-19T21:23:47.383Z,132.89
2023-01-19T21:24:47.350Z,133.74
2023-01-19T21:25:47.320Z,134.17
2023-01-19T21:26:47.245Z,133.83
2023-01-19T21:27:47.181Z,134.03
2023-01-19T21:28:47.122Z,133.83
2023-01-19T21:29:47.078Z,133.22
2023-01-19T21:30:47.135Z,132.68
2023-01-19T21:31:46.995Z,131.98
2023-01-19T21:32:46.932Z,131.79
2023-01-19T21:33:46.881Z,128.93
2023-01-19T21:34:46.825Z,130.93
2023-01-19T21:35:46.779Z,131.66
2023-01-19T21:36:46.734Z,129.79
2023-01-19T21:37:46.673Z,133.49
2023-01-19T21:38:46.614Z,132.63
2023-01-19T21:39:46.552Z,134.87
2023-01-19T21:40:46.492Z,135.18
2023-01-19T21:41:46.441Z,132.41
2023-01-19T21:42:46.374Z,134.54
2023-01-19T21:43:46.522Z,130.91
2023-01-19T21:44:46.290Z,132.63
2023-01-19T21:45:46.295Z,132.19
2023-01-19T21:46:46.172Z,131.61
2023-01-19T21:47:46.125Z,133.83
2023-01-19T21:48:46.108Z,131.47
2023-01-19T21:49:46.008Z,131.79
2023-01-19T21:50:45.952Z,131.93
2023-01-19T21:51:47.896Z,133.11
2023-01-19T21:52:45.805Z,131.35
2023-01-19T21:53:45.759Z,130.83
2023-01-19T21:54:45.709Z,132.53
2023-01-19T21:55:45.669Z,133.54
2023-01-19T21:56:45.619Z,131.88
2023-01-19T21:57:45.589Z,129.87
2023-01-19T21:58:45.519Z,131.04
2023-01-19T23:06:41.520Z,123.84
2023-01-19T23:08:41.405Z,124.21
2023-01-19T23:10:41.280Z,125.08
2023-01-19T23:11:41.255Z,128.12
2023-01-19T23:12:41.163Z,125.82
2023-01-19T23:13:41.105Z,128.18
2023-01-19T23:14:41.027Z,130.26
2023-01-19T23:15:41.016Z,128.14
2023-01-19T23:16:40.927Z,122.51
2023-01-19T23:17:40.879Z,125.70
2023-01-19T23:18:40.829Z,129.73
2023-01-19T23:19:40.735Z,126.06
2023-01-19T23:20:40.687Z,123.83
2023-01-19T23:21:40.656Z,124.89
2023-01-19T23:22:40.565Z,123.75
2023-01-19T23:23:40.499Z,127.61
2023-01-19T23:24:40.439Z,128.22
2023-01-19T23:25:40.371Z,129.57
2023-01-19T23:26:40.308Z,125.13
2023-01-19T23:27:40.255Z,128.24
2023-01-19T23:28:40.186Z,128.98
2023-01-19T23:29:40.126Z,131.18
2023-01-19T23:30:40.171Z,126.64
2023-01-19T23:31:40.077Z,129.31
2023-01-19T23:32:39.947Z,125.04
2023-01-19T23:33:39.911Z,127.07
2023-01-19T23:34:39.811Z,125.19
2023-01-19T23:35:39.746Z,126.62
2023-01-19T23:36:39.688Z,126.17
2023-01-19T23:37:39.617Z,127.98
2023-01-19T23:38:39.569Z,125.82
2023-01-19T23:39:39.524Z,126.77
2023-01-19T23:40:39.450Z,126.31
2023-01-19T23:41:39.392Z,125.46
2023-01-19T23:42:39.323Z,124.00
2023-01-19T23:43:39.251Z,127.40
2023-01-19T23:44:39.205Z,127.68
2023-01-19T23:45:39.133Z,127.25
2023-01-19T23:46:39.075Z,130.46
2023-01-19T23:47:39.003Z,127.69
2023-01-19T23:48:38.942Z,129.45
2023-01-19T23:49:38.877Z,124.55
2023-01-19T23:50:38.794Z,134.68
2023-01-19T23:51:38.724Z,129.45
2023-01-19T23:52:38.674Z,125.14
2023-01-19T23:53:38.601Z,125.44
2023-01-19T23:54:38.547Z,126.54
2023-01-19T23:55:38.492Z,127.29
2023-01-19T23:56:38.421Z,126.63
2023-01-19T23:57:38.360Z,127.76
2023-01-19T23:58:38.306Z,127.85
2023-01-19T23:59:38.277Z,127.04
